createdAt,value
2018-06-02T00:00:21.809Z,88.51
2018-06-02T00:01:02.382Z,88.6
2018-06-02T00:01:42.953Z,88.6
2018-06-02T00:02:23.521Z,88.6
2018-06-02T00:03:04.069Z,88.41
2018-06-02T00:03:44.642Z,88.55
2018-06-02T00:04:25.178Z,88.79
2018-06-02T00:05:05.779Z,88.6
2018-06-02T00:05:46.363Z,88.79
2018-06-02T00:06:26.904Z,88.6
2018-06-02T00:07:07.479Z,89.32
2018-06-02T00:07:48.012Z,89.28
2018-06-02T00:08:28.562Z,88.6
2018-06-02T00:09:09.125Z,88.51
2018-06-02T00:09:49.709Z,88.6
2018-06-02T00:10:30.263Z,88.7
2018-06-02T00:11:10.872Z,88.51
2018-06-02T00:11:51.438Z,88.65
2018-06-02T00:12:32.015Z,88.51
2018-06-02T00:13:12.650Z,88.6
2018-06-02T00:13:53.218Z,88.6
2018-06-02T00:14:33.788Z,88.79
2018-06-02T00:15:14.367Z,89.47
2018-06-02T00:15:54.921Z,89.37
2018-06-02T00:16:35.475Z,88.79
2018-06-02T00:17:16.028Z,88.99
2018-06-02T00:17:56.574Z,88.79
2018-06-02T00:18:37.136Z,89.57
2018-06-02T00:19:17.723Z,89.57
2018-06-02T00:19:58.303Z,89.47
2018-06-02T00:20:38.882Z,89.67
2018-06-02T00:21:19.449Z,89.57
2018-06-02T00:21:59.984Z,88.84
2018-06-02T00:22:40.576Z,88.84
2018-06-02T00:23:21.160Z,88.99
2018-06-02T00:24:01.766Z,88.7
2018-06-02T00:24:42.342Z,88.51
2018-06-02T00:25:22.912Z,88.7
2018-06-02T00:26:03.480Z,88.6
2018-06-02T00:26:44.047Z,88.79
2018-06-02T00:27:24.590Z,88.79
2018-06-02T00:28:05.154Z,88.6
2018-06-02T00:28:45.706Z,88.51
2018-06-02T00:29:26.260Z,88.51
2018-06-02T00:30:06.815Z,88.6
2018-06-02T00:30:47.453Z,88.6
2018-06-02T00:31:28.005Z,88.51
2018-06-02T00:32:08.565Z,88.6
2018-06-02T00:32:49.117Z,88.51
2018-06-02T00:33:29.669Z,88.41
2018-06-02T00:34:10.257Z,88.6
2018-06-02T00:34:50.824Z,88.6
2018-06-02T00:35:31.380Z,88.79
2018-06-02T00:36:11.950Z,88.6
2018-06-02T00:36:52.510Z,88.31
2018-06-02T00:37:33.056Z,88.6
2018-06-02T00:38:13.632Z,88.6
2018-06-02T00:38:54.237Z,88.6
2018-06-02T00:39:34.795Z,88.6
2018-06-02T00:40:15.373Z,88.6
2018-06-02T00:40:55.908Z,88.51
2018-06-02T00:41:36.480Z,88.79
2018-06-02T00:42:17.063Z,88.79
2018-06-02T00:42:57.667Z,88.99
2018-06-02T00:43:38.218Z,89.09
2018-06-02T00:44:19.530Z,89.09
2018-06-02T00:45:00.101Z,89.57
2018-06-02T00:45:40.666Z,89.09
2018-06-02T00:46:21.236Z,89.09
2018-06-02T00:47:01.783Z,89.09
2018-06-02T00:47:42.349Z,88.7
2018-06-02T00:48:22.906Z,88.7
2018-06-02T00:49:03.437Z,88.6
2018-06-02T00:49:43.998Z,88.79
2018-06-02T00:50:24.538Z,88.89
2018-06-02T00:51:05.096Z,88.99
2018-06-02T00:51:45.654Z,88.89
2018-06-02T00:52:26.191Z,88.7
2018-06-02T00:53:06.758Z,88.6
2018-06-02T00:53:47.374Z,88.6
2018-06-02T00:54:28.095Z,88.7
2018-06-02T00:55:08.691Z,88.79
2018-06-02T00:55:49.244Z,88.79
2018-06-02T00:56:29.818Z,88.7
2018-06-02T00:57:10.353Z,88.79
2018-06-02T00:57:50.924Z,89.76
2018-06-02T00:58:31.491Z,89.47
2018-06-02T00:59:12.067Z,89.28
2018-06-02T00:59:52.639Z,89.18
2018-06-02T01:00:33.205Z,89.76
2018-06-02T01:01:13.796Z,89.67
2018-06-02T01:01:54.355Z,89.47
2018-06-02T01:02:34.923Z,89.47
2018-06-02T01:03:15.497Z,89.47
2018-06-02T01:03:56.063Z,89.95
2018-06-02T01:04:36.613Z,89.57
2018-06-02T01:05:17.232Z,89.57
2018-06-02T01:05:57.796Z,89.76
2018-06-02T01:06:38.364Z,89.76
2018-06-02T01:07:18.914Z,89.76
2018-06-02T01:07:59.466Z,89.37
2018-06-02T01:08:40.043Z,89.57
2018-06-02T01:09:20.607Z,89.37
2018-06-02T01:10:01.161Z,88.99
2018-06-02T01:10:41.779Z,89.47
2018-06-02T01:11:22.308Z,89.47
2018-06-02T01:12:02.855Z,88.89
2018-06-02T01:12:43.446Z,88.79
2018-06-02T01:13:24.030Z,88.7
2018-06-02T01:14:04.588Z,88.79
2018-06-02T01:14:45.155Z,88.79
2018-06-02T01:15:25.729Z,88.6
2018-06-02T01:16:06.276Z,88.6
2018-06-02T01:16:46.847Z,88.6
2018-06-02T01:17:27.396Z,88.6
2018-06-02T01:18:07.934Z,88.89
2018-06-02T01:18:48.482Z,88.79
2018-06-02T01:19:29.048Z,88.6
2018-06-02T01:20:09.596Z,89.28
2018-06-02T01:20:50.161Z,89.09
2018-06-02T01:21:30.681Z,89.67
2018-06-02T01:22:11.234Z,89.76
2018-06-02T01:22:51.793Z,89.57
2018-06-02T01:23:32.343Z,89.47
2018-06-02T01:24:12.933Z,89.28
2018-06-02T01:24:53.501Z,89.28
2018-06-02T01:25:34.068Z,89.47
2018-06-02T01:26:14.638Z,89.57
2018-06-02T01:26:55.204Z,89.37
2018-06-02T01:27:35.756Z,89.57
2018-06-02T01:28:16.312Z,89.37
2018-06-02T01:28:56.846Z,89.37
2018-06-02T01:29:37.414Z,89.67
2018-06-02T01:30:17.993Z,89.57
2018-06-02T01:30:58.553Z,89.57
2018-06-02T01:31:39.124Z,89.47
2018-06-02T01:32:19.702Z,89.47
2018-06-02T01:33:00.262Z,89.57
2018-06-02T01:33:40.799Z,89.37
2018-06-02T01:34:21.365Z,89.37
2018-06-02T01:35:01.913Z,89.47
2018-06-02T01:35:42.478Z,89.47
2018-06-02T01:36:23.030Z,89.28
2018-06-02T01:37:03.660Z,89.18
2018-06-02T01:37:44.229Z,89.18
2018-06-02T01:38:24.826Z,89.57
2018-06-02T01:39:05.385Z,89.67
2018-06-02T01:39:46.027Z,89.09
2018-06-02T01:40:26.591Z,89.28
2018-06-02T01:41:07.167Z,89.37
2018-06-02T01:41:47.718Z,89.28
2018-06-02T01:42:28.281Z,89.37
2018-06-02T01:43:08.836Z,89.37
2018-06-02T01:43:49.446Z,89.57
2018-06-02T01:44:30.016Z,89.57
2018-06-02T01:45:10.618Z,89.57
2018-06-02T01:45:51.268Z,89.67
2018-06-02T01:46:31.876Z,89.95
2018-06-02T01:47:12.426Z,89.67
2018-06-02T01:47:53.028Z,89.67
2018-06-02T01:48:33.635Z,89.57
2018-06-02T01:49:14.229Z,89.67
2018-06-02T01:49:54.799Z,89.67
2018-06-02T01:50:35.354Z,89.67
2018-06-02T01:51:15.914Z,89.67
2018-06-02T01:51:56.485Z,89.76
2018-06-02T01:52:37.039Z,89.86
2018-06-02T01:53:17.583Z,90.05
2018-06-02T01:53:58.141Z,89.67
2018-06-02T01:54:38.710Z,89.67
2018-06-02T01:55:19.280Z,89.76
2018-06-02T01:55:59.891Z,89.47
2018-06-02T01:56:40.444Z,89.86
2018-06-02T01:57:20.991Z,89.95
2018-06-02T01:58:01.544Z,90.53
2018-06-02T01:58:42.108Z,89.91
2018-06-02T01:59:22.669Z,89.95
2018-06-02T02:00:03.238Z,89.76
2018-06-02T02:00:43.818Z,90.24
2018-06-02T02:01:24.457Z,89.62
2018-06-02T02:02:04.989Z,89.67
2018-06-02T02:02:45.556Z,89.57
2018-06-02T02:03:26.144Z,89.57
2018-06-02T02:04:06.706Z,90.24
2018-06-02T02:04:47.254Z,89.57
2018-06-02T02:05:27.818Z,89.95
2018-06-02T02:06:08.377Z,89.67
2018-06-02T02:06:48.924Z,90.53
2018-06-02T02:07:29.499Z,89.57
2018-06-02T02:08:10.054Z,89.76
2018-06-02T02:08:50.618Z,89.95
2018-06-02T02:09:31.219Z,89.95
2018-06-02T02:10:11.816Z,89.86
2018-06-02T02:10:52.385Z,90.05
2018-06-02T02:11:32.956Z,90.39
2018-06-02T02:12:13.519Z,90.1
2018-06-02T02:12:54.075Z,90.3
2018-06-02T02:13:34.641Z,90.15
2018-06-02T02:14:15.180Z,90.53
2018-06-02T02:14:55.759Z,90.2
2018-06-02T02:15:36.317Z,90.34
2018-06-02T02:16:16.878Z,90.24
2018-06-02T02:16:57.446Z,90.53
2018-06-02T02:17:38.017Z,90.15
2018-06-02T02:18:18.574Z,90.44
2018-06-02T02:18:59.129Z,90.63
2018-06-02T02:19:39.676Z,90.44
2018-06-02T02:20:20.226Z,90.24
2018-06-02T02:21:00.778Z,90.05
2018-06-02T02:21:41.397Z,90.05
2018-06-02T02:22:21.954Z,90.2
2018-06-02T02:23:02.530Z,90.2
2018-06-02T02:23:43.081Z,90.63
2018-06-02T02:24:23.649Z,90.48
2018-06-02T02:25:04.192Z,90.58
2018-06-02T02:25:44.758Z,90.48
2018-06-02T02:26:25.315Z,90.24
2018-06-02T02:27:05.888Z,89.53
2018-06-02T02:27:46.460Z,89.62
2018-06-02T02:28:27.025Z,90
2018-06-02T02:29:07.600Z,90.2
2018-06-02T02:29:48.158Z,90.2
2018-06-02T02:30:28.734Z,90
2018-06-02T02:31:09.320Z,90.2
2018-06-02T02:31:49.885Z,90.39
2018-06-02T02:32:30.459Z,90.2
2018-06-02T02:33:11.021Z,90.58
2018-06-02T02:33:51.594Z,90.58
2018-06-02T02:34:32.163Z,90.48
2018-06-02T02:35:12.739Z,90.58
2018-06-02T02:35:53.296Z,90.48
2018-06-02T02:36:33.857Z,90.58
2018-06-02T02:37:14.415Z,90.2
2018-06-02T02:37:54.970Z,90.15
2018-06-02T02:38:35.569Z,90
2018-06-02T02:39:16.148Z,89.91
2018-06-02T02:39:56.700Z,90.2
2018-06-02T02:40:37.263Z,90.24
2018-06-02T02:41:17.813Z,90.48
2018-06-02T02:41:58.363Z,90.2
2018-06-02T02:42:38.959Z,90.3
2018-06-02T02:43:19.528Z,89.91
2018-06-02T02:44:00.109Z,90.3
2018-06-02T02:44:40.661Z,90
2018-06-02T02:45:21.224Z,89.43
2018-06-02T02:46:01.775Z,90
2018-06-02T02:46:42.318Z,90.1
2018-06-02T02:47:22.880Z,90.3
2018-06-02T02:48:03.434Z,90.48
2018-06-02T02:48:43.980Z,89.91
2018-06-02T02:49:24.531Z,89.43
2018-06-02T02:50:05.101Z,89.62
2018-06-02T02:50:45.694Z,89.91
2018-06-02T02:51:26.325Z,90.2
2018-06-02T02:52:06.897Z,90.39
2018-06-02T02:52:47.460Z,89.91
2018-06-02T02:53:28.041Z,89.91
2018-06-02T02:54:08.589Z,90.2
2018-06-02T02:54:49.135Z,90
2018-06-02T02:55:29.700Z,90.2
2018-06-02T02:56:10.277Z,90.1
2018-06-02T02:56:50.854Z,89.91
2018-06-02T02:57:31.459Z,90.2
2018-06-02T02:58:12.061Z,90.3
2018-06-02T02:58:52.640Z,90.39
2018-06-02T02:59:33.198Z,90.2
2018-06-02T03:00:13.771Z,90.39
2018-06-02T03:00:54.331Z,90
2018-06-02T03:01:34.919Z,89.91
2018-06-02T03:02:15.501Z,89.62
2018-06-02T03:02:56.086Z,89.62
2018-06-02T03:03:36.674Z,89.53
2018-06-02T03:04:17.238Z,89.53
2018-06-02T03:04:57.794Z,89.53
2018-06-02T03:05:38.348Z,89.53
2018-06-02T03:06:18.905Z,89.43
2018-06-02T03:06:59.495Z,89.72
2018-06-02T03:07:40.142Z,89.72
2018-06-02T03:08:20.714Z,89.91
2018-06-02T03:09:01.303Z,89.53
2018-06-02T03:09:41.864Z,89.62
2018-06-02T03:10:22.405Z,89.53
2018-06-02T03:11:02.964Z,89.53
2018-06-02T03:11:43.515Z,89.72
2018-06-02T03:12:24.064Z,89.62
2018-06-02T03:13:04.614Z,89.53
2018-06-02T03:13:45.171Z,89.81
2018-06-02T03:14:25.725Z,89.53
2018-06-02T03:15:06.288Z,89.43
2018-06-02T03:15:46.853Z,89.53
2018-06-02T03:16:27.409Z,89.43
2018-06-02T03:17:07.985Z,90
2018-06-02T03:17:48.549Z,89.81
2018-06-02T03:18:29.107Z,89.81
2018-06-02T03:19:09.687Z,89.91
2018-06-02T03:19:50.246Z,89.91
2018-06-02T03:20:30.802Z,89.91
2018-06-02T03:21:11.369Z,89.91
2018-06-02T03:21:51.981Z,89.72
2018-06-02T03:22:32.560Z,89.91
2018-06-02T03:23:13.120Z,89.81
2018-06-02T03:23:53.682Z,89.62
2018-06-02T03:24:34.252Z,89.62
2018-06-02T03:25:14.809Z,89.53
2018-06-02T03:25:55.371Z,89.53
2018-06-02T03:26:35.937Z,89.53
2018-06-02T03:27:16.511Z,89.81
2018-06-02T03:27:57.065Z,90.39
2018-06-02T03:28:37.629Z,90.58
2018-06-02T03:29:18.245Z,90.39
2018-06-02T03:29:58.799Z,90.2
2018-06-02T03:30:39.347Z,90
2018-06-02T03:31:19.939Z,90.3
2018-06-02T03:32:00.507Z,90.3
2018-06-02T03:32:41.073Z,90.39
2018-06-02T03:33:21.667Z,90.39
2018-06-02T03:34:02.257Z,90.39
2018-06-02T03:34:42.834Z,90.1
2018-06-02T03:35:23.387Z,90.2
2018-06-02T03:36:03.942Z,90.2
2018-06-02T03:36:44.534Z,90.2
2018-06-02T03:37:25.139Z,90.3
2018-06-02T03:38:05.688Z,90.48
2018-06-02T03:38:46.275Z,90.1
2018-06-02T03:39:26.833Z,90
2018-06-02T03:40:07.404Z,89.62
2018-06-02T03:40:47.972Z,89.53
2018-06-02T03:41:28.545Z,89.53
2018-06-02T03:42:09.110Z,89.53
2018-06-02T03:42:49.671Z,89.53
2018-06-02T03:43:30.250Z,89.62
2018-06-02T03:44:10.865Z,89.43
2018-06-02T03:44:51.411Z,89.72
2018-06-02T03:45:31.975Z,89.72
2018-06-02T03:46:12.546Z,89.91
2018-06-02T03:46:53.088Z,89.91
2018-06-02T03:47:33.658Z,89.91
2018-06-02T03:48:14.234Z,90.1
2018-06-02T03:48:54.801Z,90.1
2018-06-02T03:49:35.392Z,89.91
2018-06-02T03:50:15.941Z,89.91
2018-06-02T03:50:56.512Z,89.53
2018-06-02T03:51:37.089Z,90.2
2018-06-02T03:52:17.669Z,89.72
2018-06-02T03:52:58.214Z,89.91
2018-06-02T03:53:38.762Z,89.81
2018-06-02T03:54:19.348Z,90
2018-06-02T03:54:59.921Z,90
2018-06-02T03:55:40.477Z,89.23
2018-06-02T03:56:21.049Z,89.72
2018-06-02T03:57:01.696Z,89.43
2018-06-02T03:57:42.255Z,89.72
2018-06-02T03:58:22.830Z,89.72
2018-06-02T03:59:03.387Z,89.72
2018-06-02T03:59:43.924Z,89.91
2018-06-02T04:00:24.488Z,89.43
2018-06-02T04:01:05.071Z,89.57
2018-06-02T04:01:45.613Z,89.72
2018-06-02T04:02:26.211Z,89.81
2018-06-02T04:03:06.778Z,89.91
2018-06-02T04:03:47.336Z,89.95
2018-06-02T04:04:27.904Z,90
2018-06-02T04:05:08.483Z,89.33
2018-06-02T04:05:49.041Z,89.23
2018-06-02T04:06:29.630Z,89.53
2018-06-02T04:07:10.187Z,89.47
2018-06-02T04:07:50.751Z,89.37
2018-06-02T04:08:31.282Z,89.43
2018-06-02T04:09:11.839Z,89.57
2018-06-02T04:09:52.385Z,89.43
2018-06-02T04:10:32.980Z,89.28
2018-06-02T04:11:13.543Z,89.53
2018-06-02T04:11:54.164Z,89.47
2018-06-02T04:12:34.737Z,89.57
2018-06-02T04:13:15.320Z,89.14
2018-06-02T04:13:55.880Z,89.43
2018-06-02T04:14:36.477Z,89.57
2018-06-02T04:15:16.993Z,89.47
2018-06-02T04:15:57.561Z,89.47
2018-06-02T04:16:38.097Z,89.67
2018-06-02T04:17:18.667Z,89.57
2018-06-02T04:17:59.287Z,89.67
2018-06-02T04:18:39.843Z,89.57
2018-06-02T04:19:20.402Z,89.47
2018-06-02T04:20:00.979Z,89.28
2018-06-02T04:20:41.523Z,89.33
2018-06-02T04:21:22.101Z,89.95
2018-06-02T04:22:02.696Z,89.18
2018-06-02T04:22:43.298Z,89.37
2018-06-02T04:23:23.861Z,89.14
2018-06-02T04:24:04.440Z,89.09
2018-06-02T04:24:45.016Z,88.51
2018-06-02T04:25:25.610Z,88.7
2018-06-02T04:26:06.201Z,88.89
2018-06-02T04:26:46.727Z,88.7
2018-06-02T04:27:27.289Z,88.51
2018-06-02T04:28:07.893Z,88.6
2018-06-02T04:28:48.511Z,88.7
2018-06-02T04:29:29.078Z,88.99
2018-06-02T04:30:09.624Z,88.79
2018-06-02T04:30:50.224Z,88.6
2018-06-02T04:31:30.769Z,88.6
2018-06-02T04:32:11.353Z,88.7
2018-06-02T04:32:51.929Z,89.09
2018-06-02T04:33:32.476Z,88.7
2018-06-02T04:34:13.058Z,89.09
2018-06-02T04:34:53.593Z,88.79
2018-06-02T04:35:34.152Z,88.7
2018-06-02T04:36:14.727Z,88.22
2018-06-02T04:36:55.322Z,88.22
2018-06-02T04:37:35.866Z,88.79
2018-06-02T04:38:16.439Z,88.7
2018-06-02T04:38:57.019Z,88.6
2018-06-02T04:39:37.561Z,88.41
2018-06-02T04:40:18.108Z,88.51
2018-06-02T04:40:58.705Z,88.41
2018-06-02T04:41:39.325Z,88.6
2018-06-02T04:42:19.820Z,88.6
2018-06-02T04:43:00.434Z,88.79
2018-06-02T04:43:40.937Z,88.41
2018-06-02T04:44:21.548Z,88.6
2018-06-02T04:45:02.122Z,88.41
2018-06-02T04:45:42.666Z,88.22
2018-06-02T04:46:23.259Z,88.79
2018-06-02T04:47:03.825Z,88.51
2018-06-02T04:47:44.400Z,88.51
2018-06-02T04:48:24.992Z,88.22
2018-06-02T04:49:05.527Z,88.22
2018-06-02T04:49:46.104Z,88.12
2018-06-02T04:50:26.658Z,87.93
2018-06-02T04:51:07.202Z,87.64
2018-06-02T04:51:47.752Z,87.64
2018-06-02T04:52:28.331Z,87.74
2018-06-02T04:53:08.873Z,87.74
2018-06-02T04:53:49.433Z,87.74
2018-06-02T04:54:30.007Z,88.12
2018-06-02T04:55:10.559Z,88.12
2018-06-02T04:55:51.127Z,87.83
2018-06-02T04:56:31.660Z,88.02
2018-06-02T04:57:12.265Z,88.12
2018-06-02T04:57:52.811Z,88.02
2018-06-02T04:58:33.414Z,88.12
2018-06-02T04:59:13.996Z,88.22
2018-06-02T04:59:54.572Z,87.64
2018-06-02T05:00:35.137Z,88.12
2018-06-02T05:01:15.698Z,88.02
2018-06-02T05:01:56.250Z,87.54
2018-06-02T05:02:36.788Z,88.31
2018-06-02T05:03:17.347Z,87.93
2018-06-02T05:03:57.920Z,88.31
2018-06-02T05:04:38.488Z,88.22
2018-06-02T05:05:19.047Z,88.22
2018-06-02T05:05:59.627Z,88.02
2018-06-02T05:06:40.165Z,88.6
2018-06-02T05:07:20.731Z,88.31
2018-06-02T05:08:01.321Z,88.12
2018-06-02T05:08:41.903Z,88.22
2018-06-02T05:09:22.453Z,87.74
2018-06-02T05:10:03.038Z,88.02
2018-06-02T05:10:43.632Z,88.31
2018-06-02T05:11:24.180Z,87.74
2018-06-02T05:12:04.762Z,87.83
2018-06-02T05:12:45.323Z,87.93
2018-06-02T05:13:25.903Z,87.93
2018-06-02T05:14:06.537Z,88.22
2018-06-02T05:14:47.027Z,87.83
2018-06-02T05:15:27.607Z,87.64
2018-06-02T05:16:08.166Z,87.93
2018-06-02T05:16:48.756Z,87.93
2018-06-02T05:17:29.300Z,87.74
2018-06-02T05:18:09.883Z,88.02
2018-06-02T05:18:50.466Z,87.74
2018-06-02T05:19:31.028Z,88.12
2018-06-02T05:20:11.588Z,87.93
2018-06-02T05:20:52.170Z,87.93
2018-06-02T05:21:32.803Z,88.02
2018-06-02T05:22:13.384Z,87.74
2018-06-02T05:22:53.944Z,87.54
2018-06-02T05:23:34.513Z,87.74
2018-06-02T05:24:15.099Z,87.83
2018-06-02T05:24:55.659Z,87.93
2018-06-02T05:25:36.223Z,87.26
2018-06-02T05:26:16.797Z,87.16
2018-06-02T05:26:57.438Z,87.35
2018-06-02T05:27:38.013Z,87.54
2018-06-02T05:28:18.601Z,87.06
2018-06-02T05:28:59.175Z,87.54
2018-06-02T05:29:39.763Z,87.83
2018-06-02T05:30:20.283Z,87.83
2018-06-02T05:31:00.829Z,87.16
2018-06-02T05:31:41.410Z,86.87
2018-06-02T05:32:21.941Z,86.87
2018-06-02T05:33:02.500Z,87.54
2018-06-02T05:33:43.067Z,87.16
2018-06-02T05:34:23.625Z,87.64
2018-06-02T05:35:04.240Z,88.07
2018-06-02T05:35:44.788Z,88.26
2018-06-02T05:36:25.337Z,88.22
2018-06-02T05:37:05.918Z,88.02
2018-06-02T05:37:46.512Z,88.12
2018-06-02T05:38:27.136Z,88.02
2018-06-02T05:39:07.701Z,87.54
2018-06-02T05:39:48.263Z,88.12
2018-06-02T05:40:28.830Z,87.93
2018-06-02T05:41:09.378Z,87.64
2018-06-02T05:41:49.958Z,88.12
2018-06-02T05:42:30.502Z,88.22
2018-06-02T05:43:11.115Z,88.02
2018-06-02T05:43:51.699Z,87.74
2018-06-02T05:44:32.282Z,87.88
2018-06-02T05:45:12.849Z,87.54
2018-06-02T05:45:53.400Z,87.78
2018-06-02T05:46:33.954Z,87.64
2018-06-02T05:47:14.544Z,87.93
2018-06-02T05:47:55.099Z,87.64
2018-06-02T05:48:35.694Z,87.74
2018-06-02T05:49:16.262Z,87.83
2018-06-02T05:49:56.809Z,87.78
2018-06-02T05:50:37.397Z,87.68
2018-06-02T05:51:17.945Z,87.78
2018-06-02T05:51:58.493Z,87.78
2018-06-02T05:52:39.054Z,87.78
2018-06-02T05:53:19.860Z,87.64
2018-06-02T05:54:00.458Z,88.17
2018-06-02T05:54:41.069Z,87.97
2018-06-02T05:55:21.638Z,88.17
2018-06-02T05:56:02.215Z,88.07
2018-06-02T05:56:42.758Z,87.97
2018-06-02T05:57:23.335Z,88.07
2018-06-02T05:58:03.912Z,87.68
2018-06-02T05:58:44.484Z,87.4
2018-06-02T05:59:25.064Z,86.33
2018-06-02T06:00:05.658Z,85.94
2018-06-02T06:00:46.244Z,85.27
2018-06-02T06:01:26.813Z,85.27
2018-06-02T06:02:07.366Z,85.46
2018-06-02T06:02:47.931Z,85.08
2018-06-02T06:03:28.485Z,85.12
2018-06-02T06:04:09.052Z,85.02
2018-06-02T06:04:49.622Z,84.74
2018-06-02T06:05:30.163Z,84.16
2018-06-02T06:06:10.744Z,83.58
2018-06-02T06:06:51.324Z,83.39
2018-06-02T06:07:32.003Z,83.39
2018-06-02T06:08:12.582Z,83.48
2018-06-02T06:08:53.148Z,83.19
2018-06-02T06:09:33.731Z,83.09
2018-06-02T06:10:14.352Z,83.09
2018-06-02T06:10:54.898Z,83.48
2018-06-02T06:11:35.456Z,83.09
2018-06-02T06:12:16.044Z,83.14
2018-06-02T06:12:56.619Z,83.39
2018-06-02T06:13:37.187Z,82.75
2018-06-02T06:14:17.831Z,82.65
2018-06-02T06:14:58.383Z,82.84
2018-06-02T06:15:38.985Z,82.84
2018-06-02T06:16:19.544Z,82.17
2018-06-02T06:17:00.102Z,82.36
2018-06-02T06:17:40.667Z,81.98
2018-06-02T06:18:21.238Z,81.98
2018-06-02T06:19:01.836Z,82.17
2018-06-02T06:19:42.412Z,82.26
2018-06-02T06:20:22.976Z,82.07
2018-06-02T06:21:03.520Z,81.98
2018-06-02T06:21:44.070Z,82.17
2018-06-02T06:22:24.629Z,82.17
2018-06-02T06:23:05.195Z,82.26
2018-06-02T06:23:45.758Z,81.98
2018-06-02T06:24:26.352Z,82.26
2018-06-02T06:25:06.900Z,82.17
2018-06-02T06:25:47.466Z,81.98
2018-06-02T06:26:28.009Z,82.36
2018-06-02T06:27:08.580Z,82.26
2018-06-02T06:27:49.159Z,82.4
2018-06-02T06:28:29.721Z,81.59
2018-06-02T06:29:10.302Z,82.4
2018-06-02T06:29:50.872Z,82.31
2018-06-02T06:30:31.432Z,82.75
2018-06-02T06:31:11.997Z,82.6
2018-06-02T06:31:52.573Z,82.6
2018-06-02T06:32:33.223Z,83.37
2018-06-02T06:33:13.824Z,82.98
2018-06-02T06:33:54.348Z,83.52
2018-06-02T06:34:35.004Z,83.91
2018-06-02T06:35:15.581Z,83.62
2018-06-02T06:35:56.300Z,83.52
2018-06-02T06:36:36.857Z,83.62
2018-06-02T06:37:17.407Z,83.72
2018-06-02T06:37:57.992Z,84.3
2018-06-02T06:38:38.583Z,84.3
2018-06-02T06:39:19.153Z,84.68
2018-06-02T06:39:59.755Z,84.78
2018-06-02T06:40:40.304Z,84.48
2018-06-02T06:41:20.876Z,84.1
2018-06-02T06:42:01.442Z,84.39
2018-06-02T06:42:41.995Z,84.68
2018-06-02T06:43:22.590Z,84.2
2018-06-02T06:44:03.151Z,84.58
2018-06-02T06:44:43.722Z,84.58
2018-06-02T06:45:24.284Z,84
2018-06-02T06:46:04.841Z,83.81
2018-06-02T06:46:45.402Z,83.62
2018-06-02T06:47:25.963Z,83.62
2018-06-02T06:48:06.569Z,83.81
2018-06-02T06:48:47.104Z,83.72
2018-06-02T06:49:27.660Z,84.2
2018-06-02T06:50:08.229Z,84.3
2018-06-02T06:50:48.789Z,84.1
2018-06-02T06:51:29.374Z,84.78
2018-06-02T06:52:09.972Z,84.48
2018-06-02T06:52:50.497Z,84.2
2018-06-02T06:53:31.071Z,84.14
2018-06-02T06:54:11.672Z,83.62
2018-06-02T06:54:52.249Z,83.37
2018-06-02T06:55:32.814Z,83.66
2018-06-02T06:56:13.380Z,83.47
2018-06-02T06:56:53.931Z,83.85
2018-06-02T06:57:34.494Z,83.85
2018-06-02T06:58:15.068Z,83.85
2018-06-02T06:58:55.647Z,83.47
2018-06-02T06:59:36.243Z,83.56
2018-06-02T07:00:16.795Z,83.61
2018-06-02T07:00:57.350Z,83.41
2018-06-02T07:01:37.938Z,83.12
2018-06-02T07:02:18.557Z,83.41
2018-06-02T07:02:59.084Z,83.36
2018-06-02T07:03:39.731Z,83.45
2018-06-02T07:04:20.301Z,82.68
2018-06-02T07:05:00.894Z,82.48
2018-06-02T07:05:41.454Z,82.43
2018-06-02T07:06:22.028Z,82.33
2018-06-02T07:07:02.588Z,81.37
2018-06-02T07:07:43.160Z,80.2
2018-06-02T07:08:23.740Z,80.44
2018-06-02T07:09:04.318Z,80.44
2018-06-02T07:09:44.908Z,78.89
2018-06-02T07:10:25.483Z,78.59
2018-06-02T07:11:06.049Z,78.31
2018-06-02T07:11:46.653Z,78.59
2018-06-02T07:12:27.168Z,78.25
2018-06-02T07:13:07.747Z,76.79
2018-06-02T07:13:48.291Z,76.31
2018-06-02T07:14:28.869Z,75.63
2018-06-02T07:15:09.438Z,75.24
2018-06-02T07:15:50.019Z,74.96
2018-06-02T07:16:30.598Z,74.86
2018-06-02T07:17:11.155Z,76.21
2018-06-02T07:17:52.064Z,76.21
2018-06-02T07:18:32.563Z,75.15
2018-06-02T07:19:13.172Z,74.28
2018-06-02T07:19:53.731Z,73.89
2018-06-02T07:20:34.311Z,74.08
2018-06-02T07:21:14.882Z,74.08
2018-06-02T07:21:55.462Z,74.57
2018-06-02T07:22:36.020Z,74.66
2018-06-02T07:23:16.632Z,73.89
2018-06-02T07:23:57.202Z,73.79
2018-06-02T07:24:37.764Z,74.18
2018-06-02T07:25:18.339Z,74.47
2018-06-02T07:25:59.008Z,74.47
2018-06-02T07:26:39.482Z,75.15
2018-06-02T07:27:20.052Z,74.66
2018-06-02T07:28:00.624Z,75.05
2018-06-02T07:28:41.192Z,74.76
2018-06-02T07:29:21.763Z,74.57
2018-06-02T07:30:02.335Z,74.47
2018-06-02T07:30:42.886Z,74.57
2018-06-02T07:31:23.538Z,74.18
2018-06-02T07:32:04.123Z,74.47
2018-06-02T07:32:44.688Z,74.66
2018-06-02T07:33:25.276Z,74.86
2018-06-02T07:34:05.846Z,75.15
2018-06-02T07:34:46.424Z,75.21
2018-06-02T07:35:27.000Z,75.4
2018-06-02T07:36:07.641Z,75.02
2018-06-02T07:36:48.145Z,76.02
2018-06-02T07:37:28.714Z,75.5
2018-06-02T07:38:09.271Z,75.5
2018-06-02T07:38:49.842Z,75.5
2018-06-02T07:39:30.413Z,76.56
2018-06-02T07:40:10.985Z,76.37
2018-06-02T07:40:51.568Z,76.28
2018-06-02T07:41:32.119Z,76.28
2018-06-02T07:42:12.699Z,75.98
2018-06-02T07:42:53.285Z,75.54
2018-06-02T07:43:33.877Z,75.7
2018-06-02T07:44:14.447Z,75.89
2018-06-02T07:44:54.992Z,75.5
2018-06-02T07:45:35.577Z,75.5
2018-06-02T07:46:16.143Z,76.18
2018-06-02T07:46:56.718Z,76.28
2018-06-02T07:47:37.310Z,75.98
2018-06-02T07:48:17.876Z,76.18
2018-06-02T07:48:58.460Z,76.66
2018-06-02T07:49:39.004Z,77.14
2018-06-02T07:50:19.584Z,77.14
2018-06-02T07:51:00.165Z,77.44
2018-06-02T07:51:40.760Z,77.24
2018-06-02T07:52:21.353Z,76.79
2018-06-02T07:53:01.988Z,76.99
2018-06-02T07:53:42.533Z,76.31
2018-06-02T07:54:23.085Z,76.21
2018-06-02T07:55:03.646Z,76.31
2018-06-02T07:55:44.198Z,75.92
2018-06-02T07:56:24.767Z,76.02
2018-06-02T07:57:05.327Z,75.15
2018-06-02T07:57:45.950Z,75.38
2018-06-02T07:58:26.486Z,75.73
2018-06-02T07:59:07.066Z,74.9
2018-06-02T07:59:47.637Z,75.48
2018-06-02T08:00:28.211Z,75.19
2018-06-02T08:01:08.780Z,74.9
2018-06-02T08:01:49.376Z,75.28
2018-06-02T08:02:29.941Z,75.09
2018-06-02T08:03:10.499Z,74.7
2018-06-02T08:03:51.073Z,74.22
2018-06-02T08:04:31.687Z,73.86
2018-06-02T08:05:12.257Z,73.58
2018-06-02T08:05:52.830Z,73.86
2018-06-02T08:06:33.396Z,73.48
2018-06-02T08:07:13.967Z,73.58
2018-06-02T08:07:54.543Z,75.51
2018-06-02T08:08:35.162Z,74.54
2018-06-02T08:09:15.768Z,74.26
2018-06-02T08:09:56.320Z,73.77
2018-06-02T08:10:36.896Z,73.77
2018-06-02T08:11:17.476Z,73.19
2018-06-02T08:11:58.051Z,72.71
2018-06-02T08:12:38.620Z,72.61
2018-06-02T08:13:19.186Z,72.8
2018-06-02T08:13:59.749Z,72.8
2018-06-02T08:14:40.327Z,72.89
2018-06-02T08:15:20.876Z,72.71
2018-06-02T08:16:01.414Z,72.47
2018-06-02T08:16:41.984Z,72.86
2018-06-02T08:17:22.549Z,72.47
2018-06-02T08:18:03.138Z,72.38
2018-06-02T08:18:43.707Z,72.09
2018-06-02T08:19:24.286Z,72.67
2018-06-02T08:20:04.833Z,73.44
2018-06-02T08:20:45.377Z,73.73
2018-06-02T08:21:25.932Z,74.41
2018-06-02T08:22:06.487Z,74.7
2018-06-02T08:22:47.062Z,75.42
2018-06-02T08:23:27.649Z,75.81
2018-06-02T08:24:08.229Z,75.51
2018-06-02T08:24:48.796Z,75.51
2018-06-02T08:25:29.361Z,74.74
2018-06-02T08:26:09.953Z,73.58
2018-06-02T08:26:50.527Z,72.71
2018-06-02T08:27:31.094Z,72.41
2018-06-02T08:28:11.651Z,71.93
2018-06-02T08:28:52.233Z,71.25
2018-06-02T08:29:32.928Z,71.44
2018-06-02T08:30:13.516Z,71.83
2018-06-02T08:30:54.058Z,72.51
2018-06-02T08:31:34.659Z,73.28
2018-06-02T08:32:15.229Z,73.96
2018-06-02T08:32:55.799Z,73.58
2018-06-02T08:33:36.448Z,73.19
2018-06-02T08:34:16.978Z,72.89
2018-06-02T08:34:57.546Z,72.89
2018-06-02T08:35:38.112Z,72.61
2018-06-02T08:36:18.663Z,73.19
2018-06-02T08:36:59.238Z,73.86
2018-06-02T08:37:39.838Z,74.16
2018-06-02T08:38:20.422Z,73.58
2018-06-02T08:39:01.055Z,73.67
2018-06-02T08:39:41.584Z,73.38
2018-06-02T08:40:22.144Z,72.89
2018-06-02T08:41:02.709Z,72.51
2018-06-02T08:41:43.298Z,72.22
2018-06-02T08:42:23.865Z,72.71
2018-06-02T08:43:04.435Z,71.06
2018-06-02T08:43:45.012Z,69.6
2018-06-02T08:44:25.571Z,69.21
2018-06-02T08:45:06.182Z,69.99
2018-06-02T08:45:46.771Z,70.18